Kanawha City, West Virginia
Current Conditions -  °F | °C
As of 3:54 PM on Tuesday 27 Jan 2015 (Local Time) from KCRW Reporting Station
Broken Clouds Broken Clouds  
Wind Chill: 16°   Ceiling: 2900
Heat Index: 24°   Visibility: 10mi
Dew Point: 13°   Wind: 7mph
Humidity: 62%   Direction: 300°WNW
Pressure: 30.04"   Gusts: NA
Location:  38.301°N, 81.5932°W
Report Text: KCRW 272054Z 30006KT 10SM BKN029 M04/M11 A3004 RMK AO2 SNE31 SLP183 P0000 60000 T10441106 53010
Loading
Personal Weather Stations






























Interactive Weather Map New forecast layout! Learn more

10-Day Weather Forecast

Advertisements
Track Severe Weather on mobile